createdAt,value
2019-03-31T00:00:04.035Z,101843.44
2019-03-31T00:02:33.163Z,101843.06
2019-03-31T00:05:01.374Z,101845.66
2019-03-31T00:07:29.584Z,101844.27
2019-03-31T00:09:58.876Z,101843.92
2019-03-31T00:12:27.096Z,101848.27
2019-03-31T00:14:55.293Z,101848.27
2019-03-31T00:17:23.520Z,101854.47
2019-03-31T00:19:51.732Z,101853.61
2019-03-31T00:22:19.934Z,101854.10
2019-03-31T00:24:48.156Z,101860.68
2019-03-31T00:27:16.356Z,101856.83
2019-03-31T00:29:44.588Z,101867.25
2019-03-31T00:32:12.792Z,101866.76
2019-03-31T00:34:41.017Z,101868.25
2019-03-31T00:37:09.224Z,101869.48
2019-03-31T00:39:37.440Z,101862.91
2019-03-31T00:42:05.645Z,101856.34
2019-03-31T00:44:33.872Z,101854.84
2019-03-31T00:47:02.436Z,101860.19
2019-03-31T00:49:30.855Z,101859.69
2019-03-31T00:51:59.070Z,101850.63
2019-03-31T00:54:27.922Z,101855.59
2019-03-31T00:56:56.179Z,101858.61
2019-03-31T00:59:24.371Z,101853.14
2019-03-31T01:01:56.864Z,101851.03
2019-03-31T01:04:26.146Z,101855.88
2019-03-31T01:06:54.792Z,101854.88
2019-03-31T01:09:25.296Z,101856.00
2019-03-31T01:11:53.667Z,101853.85
2019-03-31T01:14:21.930Z,101848.64
2019-03-31T01:16:50.312Z,101858.45
2019-03-31T01:19:18.941Z,101855.84
2019-03-31T01:21:47.139Z,101857.95
2019-03-31T01:24:15.611Z,101859.06
2019-03-31T01:26:43.881Z,101856.09
2019-03-31T01:29:12.085Z,101858.33
2019-03-31T01:31:50.165Z,101861.05
2019-03-31T01:34:10.269Z,101863.20
2019-03-31T01:36:38.461Z,101865.55
2019-03-31T01:39:08.692Z,101870.14
2019-03-31T01:41:36.960Z,101871.09
2019-03-31T01:44:05.174Z,101869.36
2019-03-31T01:46:33.376Z,101872.34
2019-03-31T01:49:01.645Z,101875.66
2019-03-31T01:51:29.911Z,101877.63
2019-03-31T01:53:58.064Z,101880.23
2019-03-31T01:56:26.266Z,101886.68
2019-03-31T01:58:54.466Z,101892.52
2019-03-31T02:01:24.256Z,101889.54
2019-03-31T02:03:52.453Z,101885.19
2019-03-31T02:06:20.669Z,101883.95
2019-03-31T02:08:48.878Z,101893.88
2019-03-31T02:11:17.100Z,101892.52
2019-03-31T02:13:45.305Z,101896.84
2019-03-31T02:16:13.517Z,101896.10
2019-03-31T02:18:41.716Z,101898.34
2019-03-31T02:21:09.927Z,101898.83
2019-03-31T02:23:38.133Z,101898.78
2019-03-31T02:26:06.347Z,101891.03
2019-03-31T02:28:34.538Z,101899.97
2019-03-31T02:31:02.746Z,101908.39
2019-03-31T02:33:32.581Z,101909.50
2019-03-31T02:36:00.797Z,101912.18
2019-03-31T02:38:28.988Z,101923.68
2019-03-31T02:40:57.203Z,101924.84
2019-03-31T02:43:25.401Z,101922.48
2019-03-31T02:45:53.610Z,101923.78
2019-03-31T02:48:21.858Z,101928.97
2019-03-31T02:50:50.766Z,101926.97
2019-03-31T02:53:19.895Z,101932.59
2019-03-31T02:55:48.102Z,101940.66
2019-03-31T02:58:16.875Z,101946.16
2019-03-31T03:00:45.253Z,101944.88
2019-03-31T03:03:15.246Z,101946.62
2019-03-31T03:05:43.451Z,101947.45
2019-03-31T03:08:11.653Z,101953.83
2019-03-31T03:10:39.876Z,101945.01
2019-03-31T03:13:09.910Z,101955.72
2019-03-31T03:15:57.389Z,101950.34
2019-03-31T03:18:27.464Z,101954.92
2019-03-31T03:20:55.668Z,101959.69
2019-03-31T03:23:23.887Z,101963.20
2019-03-31T03:25:56.218Z,101964.57
2019-03-31T03:28:22.008Z,101967.22
2019-03-31T03:30:50.341Z,101973.91
2019-03-31T03:33:19.027Z,101971.67
2019-03-31T03:35:47.479Z,101974.84
2019-03-31T03:38:15.683Z,101980.28
2019-03-31T03:40:43.883Z,101984.31
2019-03-31T03:43:12.101Z,101978.86
2019-03-31T03:45:40.297Z,101985.29
2019-03-31T03:48:08.498Z,101989.48
2019-03-31T03:50:36.698Z,101992.23
2019-03-31T03:53:04.906Z,101991.59
2019-03-31T03:55:33.101Z,101983.06
2019-03-31T03:58:01.299Z,102001.11
2019-03-31T04:00:29.521Z,101995.83
2019-03-31T04:02:57.716Z,101995.83
2019-03-31T04:05:25.914Z,101998.53
2019-03-31T04:07:54.123Z,101997.80
2019-03-31T04:10:44.707Z,102003.62
2019-03-31T04:13:12.911Z,102005.96
2019-03-31T04:15:41.108Z,101990.06
2019-03-31T04:18:09.322Z,101999.37
2019-03-31T04:20:39.500Z,102006.45
2019-03-31T04:23:07.523Z,102014.56
2019-03-31T04:25:35.743Z,102011.65
2019-03-31T04:28:03.938Z,102018.67
2019-03-31T04:30:32.151Z,102013.12
2019-03-31T04:33:00.353Z,102007.97
2019-03-31T04:35:28.560Z,102030.02
2019-03-31T04:37:56.844Z,102019.72
2019-03-31T04:40:25.041Z,102025.49
2019-03-31T04:42:53.234Z,102023.53
2019-03-31T04:45:21.452Z,102035.03
2019-03-31T04:47:49.649Z,102035.03
2019-03-31T04:50:17.858Z,102028.17
2019-03-31T04:52:46.055Z,102034.55
2019-03-31T04:55:14.271Z,102043.97
2019-03-31T04:57:42.467Z,102047.50
2019-03-31T05:00:10.678Z,102052.19
2019-03-31T05:02:38.876Z,102053.55
2019-03-31T05:05:07.098Z,102055.50
2019-03-31T05:07:35.293Z,102054.91
2019-03-31T05:10:04.747Z,102049.61
2019-03-31T05:12:32.944Z,102061.92
2019-03-31T05:15:01.213Z,102062.03
2019-03-31T05:17:29.424Z,102059.63
2019-03-31T05:19:57.616Z,102066.11
2019-03-31T05:22:25.837Z,102075.95
2019-03-31T05:24:54.041Z,102071.87
2019-03-31T05:27:22.255Z,102074.37
2019-03-31T05:29:50.450Z,102084.66
2019-03-31T05:32:18.663Z,102084.77
2019-03-31T05:34:46.863Z,102084.77
2019-03-31T05:37:15.073Z,102094.40
2019-03-31T05:39:43.268Z,102099.14
2019-03-31T05:42:11.475Z,102100.99
2019-03-31T05:44:39.929Z,102100.99
2019-03-31T05:47:08.137Z,102101.97
2019-03-31T05:49:36.337Z,102105.66
2019-03-31T05:52:04.554Z,102104.37
2019-03-31T05:54:32.754Z,102111.49
2019-03-31T05:57:00.963Z,102122.38
2019-03-31T05:59:29.158Z,102126.63
2019-03-31T06:01:57.817Z,102121.58
2019-03-31T06:04:33.025Z,102124.47
2019-03-31T06:06:55.939Z,102135.63
2019-03-31T06:09:24.153Z,102135.31
2019-03-31T06:11:53.586Z,102139.33
2019-03-31T06:14:22.962Z,102140.38
2019-03-31T06:16:51.160Z,102144.84
2019-03-31T06:19:19.367Z,102151.37
2019-03-31T06:21:47.563Z,102155.17
2019-03-31T06:24:15.781Z,102158.08
2019-03-31T06:26:43.975Z,102167.21
2019-03-31T06:29:12.194Z,102168.09
2019-03-31T06:31:40.389Z,102170.81
2019-03-31T06:34:08.608Z,102180.44
2019-03-31T06:36:36.806Z,102178.13
2019-03-31T06:39:07.176Z,102182.22
2019-03-31T06:41:35.448Z,102173.58
2019-03-31T06:44:03.655Z,102173.58
2019-03-31T06:46:32.857Z,102196.50
2019-03-31T06:49:01.056Z,102193.56
2019-03-31T06:51:29.276Z,102193.56
2019-03-31T06:53:57.477Z,102190.41
2019-03-31T06:56:25.693Z,102206.36
2019-03-31T06:58:53.900Z,102206.13
2019-03-31T07:01:23.271Z,102208.25
2019-03-31T07:03:51.479Z,102212.70
2019-03-31T07:06:19.693Z,102213.88
2019-03-31T07:08:47.893Z,102221.13
2019-03-31T07:11:16.104Z,102219.44
2019-03-31T07:13:44.306Z,102226.64
2019-03-31T07:16:12.599Z,102242.60
2019-03-31T07:18:40.818Z,102238.41
2019-03-31T07:21:10.658Z,102245.05
2019-03-31T07:23:38.859Z,102248.97
2019-03-31T07:26:07.075Z,102245.86
2019-03-31T07:28:35.274Z,102247.88
2019-03-31T07:31:03.472Z,102250.08
2019-03-31T07:33:31.690Z,102255.45
2019-03-31T07:35:59.974Z,102267.33
2019-03-31T07:38:38.359Z,102260.34
2019-03-31T07:41:11.735Z,102265.31
2019-03-31T07:43:28.043Z,102262.69
2019-03-31T07:45:56.244Z,102266.56
2019-03-31T07:48:24.467Z,102276.48
2019-03-31T07:50:52.667Z,102278.84
2019-03-31T07:53:21.327Z,102293.94
2019-03-31T07:55:49.539Z,102296.62
2019-03-31T07:58:17.741Z,102290.13
2019-03-31T08:00:46.034Z,102277.84
2019-03-31T08:03:15.714Z,102287.94
2019-03-31T08:05:43.938Z,102292.83
2019-03-31T08:08:12.137Z,102292.44
2019-03-31T08:10:40.349Z,102304.26
2019-03-31T08:13:08.546Z,102310.80
2019-03-31T08:15:36.741Z,102302.82
2019-03-31T08:18:04.952Z,102294.36
2019-03-31T08:20:33.153Z,102303.03
2019-03-31T08:23:02.675Z,102312.53
2019-03-31T08:25:30.882Z,102308.95
2019-03-31T08:27:59.099Z,102313.86
2019-03-31T08:30:27.297Z,102322.10
2019-03-31T08:32:55.496Z,102311.65
2019-03-31T08:35:23.724Z,102329.39
2019-03-31T08:37:51.918Z,102338.12
2019-03-31T08:40:20.133Z,102338.12
2019-03-31T08:42:48.334Z,102342.33
2019-03-31T08:45:16.543Z,102344.94
2019-03-31T08:47:44.741Z,102322.34
2019-03-31T08:50:12.959Z,102332.02
2019-03-31T08:52:41.228Z,102343.59
2019-03-31T08:55:09.427Z,102350.39
2019-03-31T08:57:37.664Z,102350.39
2019-03-31T09:00:07.954Z,102342.50
2019-03-31T09:02:36.230Z,102353.28
2019-03-31T09:05:06.469Z,102353.55
2019-03-31T09:07:34.681Z,102362.91
2019-03-31T09:10:03.354Z,102362.91
2019-03-31T09:12:31.546Z,102370.87
2019-03-31T09:14:59.753Z,102363.67
2019-03-31T09:17:27.953Z,102361.09
2019-03-31T09:19:56.633Z,102369.13
2019-03-31T09:22:24.911Z,102376.34
2019-03-31T09:24:53.120Z,102383.77
2019-03-31T09:27:21.320Z,102393.46
2019-03-31T09:29:50.002Z,102387.23
2019-03-31T09:32:18.203Z,102388.75
2019-03-31T09:34:47.065Z,102391.60
2019-03-31T09:37:15.276Z,102391.09
2019-03-31T09:39:43.519Z,102396.37
2019-03-31T09:42:11.679Z,102397.38
2019-03-31T09:44:39.884Z,102396.55
2019-03-31T09:47:08.097Z,102395.19
2019-03-31T09:49:36.295Z,102408.33
2019-03-31T09:52:04.520Z,102403.65
2019-03-31T09:54:32.719Z,102409.20
2019-03-31T09:57:00.917Z,102401.32
2019-03-31T09:59:29.151Z,102413.34
2019-03-31T10:01:57.330Z,102407.31
2019-03-31T10:04:25.539Z,102407.31
2019-03-31T10:06:53.809Z,102407.31
2019-03-31T10:09:22.021Z,102412.09
2019-03-31T10:11:50.214Z,102413.53
2019-03-31T10:14:18.434Z,102409.81
2019-03-31T10:16:46.636Z,102418.61
2019-03-31T10:19:14.851Z,102425.84
2019-03-31T10:21:43.049Z,102424.68
2019-03-31T10:24:11.259Z,102418.27
2019-03-31T10:26:39.464Z,102418.57
2019-03-31T10:29:07.664Z,102416.33
2019-03-31T10:31:35.874Z,102421.19
2019-03-31T10:34:04.413Z,102412.34
2019-03-31T10:36:43.829Z,102420.39
2019-03-31T10:39:04.098Z,102427.61
2019-03-31T10:41:32.288Z,102422.75
2019-03-31T10:44:00.497Z,102429.05
2019-03-31T10:46:28.692Z,102428.55
2019-03-31T10:48:56.904Z,102430.23
2019-03-31T10:51:25.100Z,102430.56
2019-03-31T10:53:53.319Z,102432.67
2019-03-31T10:56:21.518Z,102421.23
2019-03-31T10:58:49.735Z,102423.78
2019-03-31T11:01:17.930Z,102418.84
2019-03-31T11:03:46.135Z,102418.42
2019-03-31T11:06:14.351Z,102424.89
2019-03-31T11:08:42.546Z,102418.34
2019-03-31T11:11:10.746Z,102426.77
2019-03-31T11:13:38.948Z,102421.19
2019-03-31T11:16:07.165Z,102427.17
2019-03-31T11:18:35.352Z,102429.00
2019-03-31T11:21:05.879Z,102434.61
2019-03-31T11:23:34.079Z,102435.23
2019-03-31T11:26:02.282Z,102433.61
2019-03-31T11:28:30.496Z,102439.87
2019-03-31T11:30:58.697Z,102439.87
2019-03-31T11:33:26.901Z,102440.72
2019-03-31T11:35:55.170Z,102436.56
2019-03-31T11:38:24.038Z,102431.62
2019-03-31T11:40:52.230Z,102435.36
2019-03-31T11:43:20.445Z,102441.08
2019-03-31T11:45:48.632Z,102450.55
2019-03-31T11:48:16.835Z,102435.64
2019-03-31T11:50:45.044Z,102441.91
2019-03-31T11:53:13.239Z,102452.48
2019-03-31T11:55:41.449Z,102452.45
2019-03-31T11:58:09.645Z,102446.11
2019-03-31T12:00:42.883Z,102452.95
2019-03-31T12:03:11.083Z,102447.72
2019-03-31T12:05:39.315Z,102445.11
2019-03-31T12:08:07.513Z,102451.92
2019-03-31T12:10:35.886Z,102453.05
2019-03-31T12:13:04.092Z,102454.83
2019-03-31T12:15:32.295Z,102450.79
2019-03-31T12:18:00.500Z,102450.79
2019-03-31T12:20:28.707Z,102448.22
2019-03-31T12:22:56.929Z,102441.30
2019-03-31T12:25:25.106Z,102446.48
2019-03-31T12:27:53.317Z,102448.44
2019-03-31T12:30:27.631Z,102442.08
2019-03-31T12:32:57.008Z,102450.05
2019-03-31T12:35:25.198Z,102444.41
2019-03-31T12:37:53.401Z,102446.52
2019-03-31T12:40:32.535Z,102441.62
2019-03-31T12:43:00.745Z,102451.46
2019-03-31T12:45:28.946Z,102438.14
2019-03-31T12:47:57.168Z,102448.27
2019-03-31T12:50:25.364Z,102445.33
2019-03-31T12:52:53.569Z,102444.20
2019-03-31T12:55:21.773Z,102453.25
2019-03-31T12:57:51.902Z,102453.13
2019-03-31T13:00:19.904Z,102458.22
2019-03-31T13:02:48.095Z,102447.89
2019-03-31T13:05:16.303Z,102453.13
2019-03-31T13:07:55.727Z,102451.76
2019-03-31T13:10:14.440Z,102452.42
2019-03-31T13:12:42.641Z,102455.24
2019-03-31T13:15:10.841Z,102460.59
2019-03-31T13:17:39.046Z,102459.34
2019-03-31T13:20:07.316Z,102453.95
2019-03-31T13:22:35.527Z,102454.73
2019-03-31T13:25:05.561Z,102461.84
2019-03-31T13:27:33.768Z,102445.66
2019-03-31T13:30:01.963Z,102441.21
2019-03-31T13:32:30.176Z,102456.03
2019-03-31T13:34:58.372Z,102452.50
2019-03-31T13:37:26.568Z,102455.52
2019-03-31T13:39:54.770Z,102453.94
2019-03-31T13:42:22.970Z,102453.94
2019-03-31T13:44:51.188Z,102453.99
2019-03-31T13:47:19.386Z,102451.63
2019-03-31T13:49:47.592Z,102446.97
2019-03-31T13:52:15.788Z,102443.62
2019-03-31T13:54:44.005Z,102445.12
2019-03-31T13:57:13.424Z,102440.64
2019-03-31T13:59:42.097Z,102444.17
2019-03-31T14:02:10.277Z,102448.67
2019-03-31T14:04:50.971Z,102439.03
2019-03-31T14:07:08.406Z,102445.98
2019-03-31T14:09:36.673Z,102447.42
2019-03-31T14:12:04.880Z,102450.59
2019-03-31T14:14:34.200Z,102446.59
2019-03-31T14:17:02.409Z,102443.57
2019-03-31T14:19:30.597Z,102448.34
2019-03-31T14:21:58.789Z,102446.84
2019-03-31T14:24:27.334Z,102451.55
2019-03-31T14:26:56.052Z,102448.88
2019-03-31T14:29:24.265Z,102448.03
2019-03-31T14:31:52.456Z,102440.89
2019-03-31T14:34:20.668Z,102444.87
2019-03-31T14:36:48.866Z,102441.89
2019-03-31T14:39:17.344Z,102448.86
2019-03-31T14:41:45.540Z,102453.53
2019-03-31T14:44:13.742Z,102448.89
2019-03-31T14:46:41.940Z,102455.63
2019-03-31T14:49:10.145Z,102457.61
2019-03-31T14:51:38.344Z,102455.25
2019-03-31T14:54:06.554Z,102460.86
2019-03-31T14:56:34.746Z,102459.94
2019-03-31T14:59:02.955Z,102457.37
2019-03-31T15:01:31.148Z,102463.77
2019-03-31T15:03:59.366Z,102458.38
2019-03-31T15:06:27.555Z,102456.69
2019-03-31T15:08:55.845Z,102455.44
2019-03-31T15:11:24.039Z,102452.94
2019-03-31T15:13:52.259Z,102453.27
2019-03-31T15:16:20.462Z,102452.01
2019-03-31T15:18:48.650Z,102451.80
2019-03-31T15:21:17.319Z,102451.59
2019-03-31T15:23:45.511Z,102445.44
2019-03-31T15:26:13.793Z,102449.77
2019-03-31T15:28:45.297Z,102453.00
2019-03-31T15:31:11.926Z,102450.64
2019-03-31T15:33:40.126Z,102451.14
2019-03-31T15:36:08.346Z,102451.08
2019-03-31T15:38:36.543Z,102453.03
2019-03-31T15:41:04.813Z,102451.98
2019-03-31T15:43:33.015Z,102454.56
2019-03-31T15:46:01.217Z,102462.69
2019-03-31T15:48:29.431Z,102458.58
2019-03-31T15:50:57.628Z,102464.34
2019-03-31T15:53:26.204Z,102458.77
2019-03-31T15:55:54.403Z,102456.43
2019-03-31T15:58:22.610Z,102459.05
2019-03-31T16:00:50.813Z,102461.00
2019-03-31T16:03:19.025Z,102457.84
2019-03-31T16:05:47.240Z,102469.80
2019-03-31T16:08:15.437Z,102465.84
2019-03-31T16:10:43.629Z,102465.27
2019-03-31T16:13:11.920Z,102464.09
2019-03-31T16:15:40.112Z,102465.38
2019-03-31T16:18:08.310Z,102467.14
2019-03-31T16:20:36.603Z,102469.56
2019-03-31T16:23:04.807Z,102466.33
2019-03-31T16:25:38.116Z,102474.05
2019-03-31T16:28:06.324Z,102472.37
2019-03-31T16:30:35.710Z,102472.67
2019-03-31T16:33:06.840Z,102469.11
2019-03-31T16:35:33.840Z,102466.73
2019-03-31T16:38:02.034Z,102466.52
2019-03-31T16:40:30.235Z,102476.92
2019-03-31T16:42:58.443Z,102476.22
2019-03-31T16:45:26.638Z,102476.41
2019-03-31T16:47:54.848Z,102479.20
2019-03-31T16:50:23.054Z,102474.09
2019-03-31T16:52:52.810Z,102478.83
2019-03-31T16:55:21.222Z,102485.83
2019-03-31T16:57:49.424Z,102480.41
2019-03-31T17:00:17.609Z,102485.97
2019-03-31T17:02:46.280Z,102488.78
2019-03-31T17:05:21.629Z,102486.27
2019-03-31T17:07:44.384Z,102491.91
2019-03-31T17:10:12.568Z,102497.59
2019-03-31T17:12:40.775Z,102493.54
2019-03-31T17:15:08.968Z,102499.95
2019-03-31T17:17:37.181Z,102499.69
2019-03-31T17:20:06.117Z,102496.20
2019-03-31T17:22:34.344Z,102501.54
2019-03-31T17:25:02.612Z,102497.96
2019-03-31T17:27:30.804Z,102501.47
2019-03-31T17:29:59.011Z,102500.51
2019-03-31T17:32:27.214Z,102502.77
2019-03-31T17:34:55.420Z,102496.39
2019-03-31T17:37:23.616Z,102504.11
2019-03-31T17:40:05.129Z,102507.38
2019-03-31T17:42:21.749Z,102514.05
2019-03-31T17:44:49.964Z,102509.90
2019-03-31T17:47:18.184Z,102505.53
2019-03-31T17:49:46.378Z,102506.52
2019-03-31T17:52:14.578Z,102511.91
2019-03-31T17:54:42.774Z,102519.32
2019-03-31T17:57:10.988Z,102518.06
2019-03-31T17:59:39.179Z,102515.46
2019-03-31T18:02:07.390Z,102510.80
2019-03-31T18:04:38.258Z,102513.52
2019-03-31T18:07:05.518Z,102519.94
2019-03-31T18:09:33.722Z,102523.59
2019-03-31T18:12:01.927Z,102525.13
2019-03-31T18:14:30.122Z,102530.14
2019-03-31T18:16:58.339Z,102526.38
2019-03-31T18:19:26.540Z,102538.69
2019-03-31T18:21:54.754Z,102536.44
2019-03-31T18:24:22.943Z,102533.56
2019-03-31T18:26:51.152Z,102541.77
2019-03-31T18:29:19.346Z,102540.39
2019-03-31T18:31:47.802Z,102541.70
2019-03-31T18:34:16.460Z,102545.96
2019-03-31T18:36:44.679Z,102543.37
2019-03-31T18:39:12.882Z,102541.25
2019-03-31T18:41:41.093Z,102542.01
2019-03-31T18:44:09.294Z,102540.59
2019-03-31T18:46:37.492Z,102542.70
2019-03-31T18:49:05.700Z,102551.17
2019-03-31T18:51:33.891Z,102546.55
2019-03-31T18:54:03.746Z,102554.98
2019-03-31T18:56:39.274Z,102554.29
2019-03-31T18:59:26.902Z,102546.57
2019-03-31T19:01:56.994Z,102555.20
2019-03-31T19:04:32.503Z,102554.55
2019-03-31T19:07:02.346Z,102559.93
2019-03-31T19:09:41.261Z,102563.91
2019-03-31T19:12:11.101Z,102553.95
2019-03-31T19:14:43.996Z,102569.75
2019-03-31T19:17:13.852Z,102581.82
2019-03-31T19:19:46.576Z,102581.01
2019-03-31T19:22:25.445Z,102583.39
2019-03-31T19:25:01.237Z,102575.66
2019-03-31T19:27:31.086Z,102575.66
2019-03-31T19:30:17.117Z,102587.00
2019-03-31T19:33:03.229Z,102589.63
2019-03-31T19:35:33.597Z,102590.25
2019-03-31T19:38:03.448Z,102599.23
2019-03-31T19:40:33.305Z,102599.63
2019-03-31T19:43:09.225Z,102612.48
2019-03-31T19:45:55.916Z,102604.81
2019-03-31T19:48:34.157Z,102610.27
2019-03-31T19:51:04.023Z,102607.95
2019-03-31T19:53:49.551Z,102613.44
2019-03-31T19:56:22.292Z,102624.56
2019-03-31T19:59:04.014Z,102624.41
2019-03-31T20:01:45.843Z,102627.22
2019-03-31T20:04:21.316Z,102629.56
2019-03-31T20:07:07.189Z,102635.48
2019-03-31T20:09:49.401Z,102638.92
2019-03-31T20:12:19.999Z,102640.97
2019-03-31T20:14:52.943Z,102645.45
2019-03-31T20:17:28.196Z,102637.20
2019-03-31T20:20:13.025Z,102645.73
2019-03-31T20:23:06.506Z,102650.64
2019-03-31T20:25:39.290Z,102651.44
2019-03-31T20:28:25.394Z,102653.03
2019-03-31T20:31:10.967Z,102651.38
2019-03-31T20:33:40.823Z,102647.69
2019-03-31T20:36:26.602Z,102647.69
2019-03-31T20:38:56.463Z,102648.85
2019-03-31T20:41:44.348Z,102649.34
2019-03-31T20:44:12.563Z,102645.34
2019-03-31T20:46:41.150Z,102645.80
2019-03-31T20:49:09.351Z,102645.80
2019-03-31T20:51:37.847Z,102657.60
2019-03-31T20:54:06.302Z,102658.83
2019-03-31T20:56:34.794Z,102655.38
2019-03-31T20:59:03.278Z,102658.00
2019-03-31T21:01:31.753Z,102657.25
2019-03-31T21:04:00.439Z,102659.32
2019-03-31T21:06:28.715Z,102659.48
2019-03-31T21:08:57.204Z,102662.99
2019-03-31T21:11:25.703Z,102662.99
2019-03-31T21:13:56.787Z,102660.80
2019-03-31T21:16:23.843Z,102660.80
2019-03-31T21:18:52.037Z,102661.83
2019-03-31T21:21:20.248Z,102667.25
2019-03-31T21:23:48.457Z,102651.13
2019-03-31T21:26:16.675Z,102651.13
2019-03-31T21:28:44.871Z,102649.66
2019-03-31T21:31:13.073Z,102653.87
2019-03-31T21:33:41.276Z,102663.38
2019-03-31T21:36:09.947Z,102669.67
2019-03-31T21:38:38.838Z,102669.47
2019-03-31T21:41:07.707Z,102671.78
2019-03-31T21:43:35.915Z,102667.71
2019-03-31T21:46:04.132Z,102678.46
2019-03-31T21:48:32.331Z,102681.98
2019-03-31T21:51:00.551Z,102682.64
2019-03-31T21:53:28.745Z,102682.07
2019-03-31T21:55:56.942Z,102682.07
2019-03-31T21:58:25.148Z,102687.97
2019-03-31T22:00:56.432Z,102689.65
2019-03-31T22:03:24.634Z,102693.09
2019-03-31T22:05:52.833Z,102692.77
2019-03-31T22:08:21.059Z,102682.41
2019-03-31T22:10:49.264Z,102695.77
2019-03-31T22:13:17.464Z,102695.77
2019-03-31T22:15:45.703Z,102689.19
2019-03-31T22:18:13.870Z,102698.75
2019-03-31T22:20:42.080Z,102701.35
2019-03-31T22:23:10.272Z,102703.03
2019-03-31T22:25:38.485Z,102699.44
2019-03-31T22:28:06.683Z,102707.84
2019-03-31T22:30:35.524Z,102712.09
2019-03-31T22:33:03.982Z,102703.32
2019-03-31T22:35:32.195Z,102701.16
2019-03-31T22:38:02.386Z,102707.52
2019-03-31T22:40:30.323Z,102704.92
2019-03-31T22:42:58.522Z,102704.81
2019-03-31T22:45:26.731Z,102710.09
2019-03-31T22:47:54.929Z,102705.06
2019-03-31T22:50:23.137Z,102707.90
2019-03-31T22:52:51.407Z,102711.73
2019-03-31T22:55:19.632Z,102707.78
2019-03-31T22:57:48.289Z,102709.51
2019-03-31T23:00:18.130Z,102704.60
2019-03-31T23:02:46.348Z,102708.53
2019-03-31T23:05:14.544Z,102700.65
2019-03-31T23:07:42.768Z,102705.25
2019-03-31T23:10:10.987Z,102706.94
2019-03-31T23:12:40.252Z,102705.45
2019-03-31T23:15:08.931Z,102705.01
2019-03-31T23:17:37.130Z,102704.09
2019-03-31T23:20:06.271Z,102706.62
2019-03-31T23:22:34.466Z,102702.48
2019-03-31T23:25:02.669Z,102698.05
2019-03-31T23:27:30.873Z,102697.36
2019-03-31T23:29:59.068Z,102700.33
2019-03-31T23:32:27.292Z,102708.06
2019-03-31T23:34:55.493Z,102706.36
2019-03-31T23:37:23.693Z,102699.41
2019-03-31T23:39:51.909Z,102703.47
2019-03-31T23:42:22.593Z,102705.01
2019-03-31T23:44:50.067Z,102701.21
2019-03-31T23:47:18.263Z,102704.73
2019-03-31T23:49:46.458Z,102711.30
2019-03-31T23:52:14.668Z,102704.73
2019-03-31T23:54:42.861Z,102713.72
2019-03-31T23:57:11.074Z,102711.83
2019-03-31T23:59:39.261Z,102710.88
